sensor_id;sensor_type;location;lat;lon;timestamp;temperature;humidity
51021;DHT22;38907;45.562;8.856;2023-02-01T00:01:09;2.60;99.90
51021;DHT22;38907;45.562;8.856;2023-02-01T00:06:11;2.40;99.90
51021;DHT22;38907;45.562;8.856;2023-02-01T00:11:13;2.40;99.90
51021;DHT22;38907;45.562;8.856;2023-02-01T00:16:18;2.60;99.90
51021;DHT22;38907;45.562;8.856;2023-02-01T00:21:20;2.60;99.90
51021;DHT22;38907;45.562;8.856;2023-02-01T00:26:26;2.80;99.90
51021;DHT22;38907;45.562;8.856;2023-02-01T00:31:30;3.00;99.90
51021;DHT22;38907;45.562;8.856;2023-02-01T00:36:32;3.00;99.90
51021;DHT22;38907;45.562;8.856;2023-02-01T00:41:35;3.10;99.90
51021;DHT22;38907;45.562;8.856;2023-02-01T00:46:38;3.00;99.90
51021;DHT22;38907;45.562;8.856;2023-02-01T00:51:40;2.90;99.90
51021;DHT22;38907;45.562;8.856;2023-02-01T00:56:41;3.00;99.90
51021;DHT22;38907;45.562;8.856;2023-02-01T01:01:45;3.10;99.90
51021;DHT22;38907;45.562;8.856;2023-02-01T01:06:47;3.10;99.90
51021;DHT22;38907;45.562;8.856;2023-02-01T01:11:48;3.00;99.90
51021;DHT22;38907;45.562;8.856;2023-02-01T01:16:52;3.10;99.90
51021;DHT22;38907;45.562;8.856;2023-02-01T01:21:54;3.10;99.90
51021;DHT22;38907;45.562;8.856;2023-02-01T01:26:56;3.20;99.90
51021;DHT22;38907;45.562;8.856;2023-02-01T01:31:59;3.30;99.90
51021;DHT22;38907;45.562;8.856;2023-02-01T01:37:02;3.30;99.90
51021;DHT22;38907;45.562;8.856;2023-02-01T01:42:03;3.40;99.90
51021;DHT22;38907;45.562;8.856;2023-02-01T01:47:07;3.40;99.90
51021;DHT22;38907;45.562;8.856;2023-02-01T01:52:10;3.30;99.90
51021;DHT22;38907;45.562;8.856;2023-02-01T01:57:15;3.20;99.90
51021;DHT22;38907;45.562;8.856;2023-02-01T02:02:19;3.10;99.90
51021;DHT22;38907;45.562;8.856;2023-02-01T02:07:24;3.10;99.90
51021;DHT22;38907;45.562;8.856;2023-02-01T02:12:27;3.00;99.90
51021;DHT22;38907;45.562;8.856;2023-02-01T02:17:35;3.00;99.90
51021;DHT22;38907;45.562;8.856;2023-02-01T02:22:59;3.10;99.90
51021;DHT22;38907;45.562;8.856;2023-02-01T02:28:15;3.10;99.90
51021;DHT22;38907;45.562;8.856;2023-02-01T02:33:42;3.00;99.90
51021;DHT22;38907;45.562;8.856;2023-02-01T02:38:52;2.90;99.90
51021;DHT22;38907;45.562;8.856;2023-02-01T02:43:59;2.90;99.90
51021;DHT22;38907;45.562;8.856;2023-02-01T02:49:24;2.90;99.90
51021;DHT22;38907;45.562;8.856;2023-02-01T02:54:32;3.10;99.90
51021;DHT22;38907;45.562;8.856;2023-02-01T02:59:52;3.00;99.90
51021;DHT22;38907;45.562;8.856;2023-02-01T03:05:13;3.00;99.90
51021;DHT22;38907;45.562;8.856;2023-02-01T03:10:16;3.10;99.90
51021;DHT22;38907;45.562;8.856;2023-02-01T03:15:20;3.10;99.90
51021;DHT22;38907;45.562;8.856;2023-02-01T03:20:25;3.20;99.90
51021;DHT22;38907;45.562;8.856;2023-02-01T03:25:31;3.20;99.90
51021;DHT22;38907;45.562;8.856;2023-02-01T03:30:36;3.30;99.90
51021;DHT22;38907;45.562;8.856;2023-02-01T03:35:44;3.30;99.90
51021;DHT22;38907;45.562;8.856;2023-02-01T03:40:55;3.30;99.90
51021;DHT22;38907;45.562;8.856;2023-02-01T03:46:03;3.30;99.90
51021;DHT22;38907;45.562;8.856;2023-02-01T03:51:09;3.40;99.90
51021;DHT22;38907;45.562;8.856;2023-02-01T03:56:12;3.20;99.90
51021;DHT22;38907;45.562;8.856;2023-02-01T04:01:14;3.30;99.90
51021;DHT22;38907;45.562;8.856;2023-02-01T04:06:17;3.40;99.90
51021;DHT22;38907;45.562;8.856;2023-02-01T04:11:19;3.40;99.90
51021;DHT22;38907;45.562;8.856;2023-02-01T04:16:21;3.30;99.90
51021;DHT22;38907;45.562;8.856;2023-02-01T04:21:24;3.10;99.90
51021;DHT22;38907;45.562;8.856;2023-02-01T04:26:26;3.00;99.90
51021;DHT22;38907;45.562;8.856;2023-02-01T04:31:28;3.00;99.90
51021;DHT22;38907;45.562;8.856;2023-02-01T04:36:31;3.00;99.90
51021;DHT22;38907;45.562;8.856;2023-02-01T04:41:33;2.90;99.90
51021;DHT22;38907;45.562;8.856;2023-02-01T04:46:35;2.70;99.90
51021;DHT22;38907;45.562;8.856;2023-02-01T04:51:38;2.60;99.90
51021;DHT22;38907;45.562;8.856;2023-02-01T04:56:40;2.70;99.90
51021;DHT22;38907;45.562;8.856;2023-02-01T05:01:42;2.60;99.90
51021;DHT22;38907;45.562;8.856;2023-02-01T05:06:45;2.60;99.90
51021;DHT22;38907;45.562;8.856;2023-02-01T05:11:47;2.60;99.90
51021;DHT22;38907;45.562;8.856;2023-02-01T05:17:06;2.60;99.90
51021;DHT22;38907;45.562;8.856;2023-02-01T05:22:09;2.70;99.90
51021;DHT22;38907;45.562;8.856;2023-02-01T05:27:11;2.70;99.90
51021;DHT22;38907;45.562;8.856;2023-02-01T05:32:13;2.60;99.90
51021;DHT22;38907;45.562;8.856;2023-02-01T05:37:16;2.40;99.90
51021;DHT22;38907;45.562;8.856;2023-02-01T05:42:18;2.30;99.90
51021;DHT22;38907;45.562;8.856;2023-02-01T05:47:20;2.10;99.90
51021;DHT22;38907;45.562;8.856;2023-02-01T05:52:23;2.20;99.90
51021;DHT22;38907;45.562;8.856;2023-02-01T05:57:25;2.20;99.90
51021;DHT22;38907;45.562;8.856;2023-02-01T06:02:27;2.30;99.90
51021;DHT22;38907;45.562;8.856;2023-02-01T06:07:30;2.40;99.90
51021;DHT22;38907;45.562;8.856;2023-02-01T06:12:33;2.50;99.90
51021;DHT22;38907;45.562;8.856;2023-02-01T06:17:34;2.40;99.90
51021;DHT22;38907;45.562;8.856;2023-02-01T06:22:38;2.50;99.90
51021;DHT22;38907;45.562;8.856;2023-02-01T06:27:40;2.40;99.90
51021;DHT22;38907;45.562;8.856;2023-02-01T06:32:42;2.60;99.90
51021;DHT22;38907;45.562;8.856;2023-02-01T06:37:45;2.60;99.90
51021;DHT22;38907;45.562;8.856;2023-02-01T06:42:48;2.60;99.90
51021;DHT22;38907;45.562;8.856;2023-02-01T06:47:50;2.50;99.90
51021;DHT22;38907;45.562;8.856;2023-02-01T06:52:53;2.60;99.90
51021;DHT22;38907;45.562;8.856;2023-02-01T06:57:55;2.60;99.90
51021;DHT22;38907;45.562;8.856;2023-02-01T07:02:58;2.60;99.90
51021;DHT22;38907;45.562;8.856;2023-02-01T07:08:01;2.50;99.90
51021;DHT22;38907;45.562;8.856;2023-02-01T07:13:03;2.60;99.90
51021;DHT22;38907;45.562;8.856;2023-02-01T07:18:05;2.70;99.90
51021;DHT22;38907;45.562;8.856;2023-02-01T07:23:09;2.90;99.90
51021;DHT22;38907;45.562;8.856;2023-02-01T07:28:11;3.10;99.90
51021;DHT22;38907;45.562;8.856;2023-02-01T07:33:13;3.20;99.90
51021;DHT22;38907;45.562;8.856;2023-02-01T07:38:17;3.30;99.90
51021;DHT22;38907;45.562;8.856;2023-02-01T07:43:20;3.50;99.90
51021;DHT22;38907;45.562;8.856;2023-02-01T07:48:22;3.50;99.90
51021;DHT22;38907;45.562;8.856;2023-02-01T07:53:26;3.70;99.90
51021;DHT22;38907;45.562;8.856;2023-02-01T07:58:28;3.80;99.90
51021;DHT22;38907;45.562;8.856;2023-02-01T08:03:32;4.10;99.90
51021;DHT22;38907;45.562;8.856;2023-02-01T08:08:35;4.10;99.90
51021;DHT22;38907;45.562;8.856;2023-02-01T08:13:37;4.40;99.90
51021;DHT22;38907;45.562;8.856;2023-02-01T08:18:39;4.60;99.90
51021;DHT22;38907;45.562;8.856;2023-02-01T08:23:43;4.80;99.90
51021;DHT22;38907;45.562;8.856;2023-02-01T08:28:47;4.90;99.90
51021;DHT22;38907;45.562;8.856;2023-02-01T08:33:51;5.00;99.90
51021;DHT22;38907;45.562;8.856;2023-02-01T08:38:55;5.20;99.90
51021;DHT22;38907;45.562;8.856;2023-02-01T08:43:57;5.60;99.90
51021;DHT22;38907;45.562;8.856;2023-02-01T08:48:59;5.80;99.90
51021;DHT22;38907;45.562;8.856;2023-02-01T08:54:02;5.80;99.90
51021;DHT22;38907;45.562;8.856;2023-02-01T08:59:04;5.90;99.90
51021;DHT22;38907;45.562;8.856;2023-02-01T09:04:06;6.00;99.90
51021;DHT22;38907;45.562;8.856;2023-02-01T09:09:09;6.30;99.90
51021;DHT22;38907;45.562;8.856;2023-02-01T09:14:11;6.40;99.90
51021;DHT22;38907;45.562;8.856;2023-02-01T09:19:13;6.50;99.90
51021;DHT22;38907;45.562;8.856;2023-02-01T09:24:17;6.80;99.90
51021;DHT22;38907;45.562;8.856;2023-02-01T09:29:18;6.80;99.90
51021;DHT22;38907;45.562;8.856;2023-02-01T09:34:20;7.00;99.90
51021;DHT22;38907;45.562;8.856;2023-02-01T09:39:24;7.20;99.90
51021;DHT22;38907;45.562;8.856;2023-02-01T09:44:37;7.40;99.90
51021;DHT22;38907;45.562;8.856;2023-02-01T09:49:48;7.50;99.90
51021;DHT22;38907;45.562;8.856;2023-02-01T09:54:57;7.70;99.90
51021;DHT22;38907;45.562;8.856;2023-02-01T10:00:05;7.80;99.90
51021;DHT22;38907;45.562;8.856;2023-02-01T10:05:14;8.00;99.90
51021;DHT22;38907;45.562;8.856;2023-02-01T10:10:26;8.40;99.90
51021;DHT22;38907;45.562;8.856;2023-02-01T10:15:35;8.60;99.90
51021;DHT22;38907;45.562;8.856;2023-02-01T10:20:49;8.70;99.90
51021;DHT22;38907;45.562;8.856;2023-02-01T10:25:55;8.80;99.90
51021;DHT22;38907;45.562;8.856;2023-02-01T10:30:58;9.00;99.90
51021;DHT22;38907;45.562;8.856;2023-02-01T10:36:08;9.30;99.90
51021;DHT22;38907;45.562;8.856;2023-02-01T10:41:15;9.50;99.90
51021;DHT22;38907;45.562;8.856;2023-02-01T10:46:18;9.60;99.90
51021;DHT22;38907;45.562;8.856;2023-02-01T10:51:23;9.70;99.90
51021;DHT22;38907;45.562;8.856;2023-02-01T10:56:28;9.70;99.90
51021;DHT22;38907;45.562;8.856;2023-02-01T11:01:36;9.80;99.90
51021;DHT22;38907;45.562;8.856;2023-02-01T11:06:40;9.90;99.90
51021;DHT22;38907;45.562;8.856;2023-02-01T11:11:55;10.00;99.90
51021;DHT22;38907;45.562;8.856;2023-02-01T11:16:59;10.10;99.90
51021;DHT22;38907;45.562;8.856;2023-02-01T11:22:03;10.20;99.90
51021;DHT22;38907;45.562;8.856;2023-02-01T11:27:18;10.20;99.90
51021;DHT22;38907;45.562;8.856;2023-02-01T11:32:23;10.30;99.90
51021;DHT22;38907;45.562;8.856;2023-02-01T11:37:27;10.30;99.90
51021;DHT22;38907;45.562;8.856;2023-02-01T11:42:31;10.30;99.90
51021;DHT22;38907;45.562;8.856;2023-02-01T11:47:39;10.40;99.90
51021;DHT22;38907;45.562;8.856;2023-02-01T11:52:51;10.30;99.90
51021;DHT22;38907;45.562;8.856;2023-02-01T11:58:06;10.60;99.90
51021;DHT22;38907;45.562;8.856;2023-02-01T12:03:35;10.70;99.90
51021;DHT22;38907;45.562;8.856;2023-02-01T12:08:56;10.70;99.90
51021;DHT22;38907;45.562;8.856;2023-02-01T12:14:14;10.80;99.90
51021;DHT22;38907;45.562;8.856;2023-02-01T12:19:35;10.90;99.90
51021;DHT22;38907;45.562;8.856;2023-02-01T12:24:53;11.00;99.90
51021;DHT22;38907;45.562;8.856;2023-02-01T12:30:24;11.00;98.90
51021;DHT22;38907;45.562;8.856;2023-02-01T12:35:44;11.20;98.70
51021;DHT22;38907;45.562;8.856;2023-02-01T12:40:59;11.20;97.90
51021;DHT22;38907;45.562;8.856;2023-02-01T12:46:09;11.10;97.40
51021;DHT22;38907;45.562;8.856;2023-02-01T12:51:15;11.10;97.20
51021;DHT22;38907;45.562;8.856;2023-02-01T12:56:22;11.20;97.50
51021;DHT22;38907;45.562;8.856;2023-02-01T13:01:28;11.30;97.70
51021;DHT22;38907;45.562;8.856;2023-02-01T13:06:35;11.40;97.50
51021;DHT22;38907;45.562;8.856;2023-02-01T13:11:42;11.50;97.50
51021;DHT22;38907;45.562;8.856;2023-02-01T13:16:49;11.40;97.40
51021;DHT22;38907;45.562;8.856;2023-02-01T13:21:55;11.40;96.90
51021;DHT22;38907;45.562;8.856;2023-02-01T13:27:00;11.50;97.10
51021;DHT22;38907;45.562;8.856;2023-02-01T13:32:23;11.60;97.50
51021;DHT22;38907;45.562;8.856;2023-02-01T13:37:39;11.60;97.90
51021;DHT22;38907;45.562;8.856;2023-02-01T13:42:49;11.60;98.30
51021;DHT22;38907;45.562;8.856;2023-02-01T13:47:57;11.80;98.90
51021;DHT22;38907;45.562;8.856;2023-02-01T13:53:01;11.90;98.60
51021;DHT22;38907;45.562;8.856;2023-02-01T13:58:18;11.90;98.80
51021;DHT22;38907;45.562;8.856;2023-02-01T14:03:22;11.90;98.70
51021;DHT22;38907;45.562;8.856;2023-02-01T14:08:46;11.80;99.50
51021;DHT22;38907;45.562;8.856;2023-02-01T14:13:53;11.80;99.90
51021;DHT22;38907;45.562;8.856;2023-02-01T14:19:00;11.80;99.90
51021;DHT22;38907;45.562;8.856;2023-02-01T14:24:16;11.90;99.90
51021;DHT22;38907;45.562;8.856;2023-02-01T14:29:25;11.80;99.90
51021;DHT22;38907;45.562;8.856;2023-02-01T14:34:38;11.80;99.90
51021;DHT22;38907;45.562;8.856;2023-02-01T14:39:53;11.80;99.90
51021;DHT22;38907;45.562;8.856;2023-02-01T14:50:39;11.90;99.90
51021;DHT22;38907;45.562;8.856;2023-02-01T14:55:44;11.90;99.90
51021;DHT22;38907;45.562;8.856;2023-02-01T15:00:49;11.80;99.90
51021;DHT22;38907;45.562;8.856;2023-02-01T15:05:56;11.70;99.90
51021;DHT22;38907;45.562;8.856;2023-02-01T15:11:01;11.70;99.90
51021;DHT22;38907;45.562;8.856;2023-02-01T15:16:09;11.70;99.90
51021;DHT22;38907;45.562;8.856;2023-02-01T15:21:18;11.60;99.90
51021;DHT22;38907;45.562;8.856;2023-02-01T15:26:28;11.50;99.90
51021;DHT22;38907;45.562;8.856;2023-02-01T15:31:37;11.50;99.90
51021;DHT22;38907;45.562;8.856;2023-02-01T15:36:43;11.40;99.90
51021;DHT22;38907;45.562;8.856;2023-02-01T15:41:50;11.30;99.90
51021;DHT22;38907;45.562;8.856;2023-02-01T15:46:52;11.30;99.90
51021;DHT22;38907;45.562;8.856;2023-02-01T15:51:57;11.20;99.90
51021;DHT22;38907;45.562;8.856;2023-02-01T15:57:01;11.20;99.90
51021;DHT22;38907;45.562;8.856;2023-02-01T16:02:03;11.10;99.90
51021;DHT22;38907;45.562;8.856;2023-02-01T16:07:24;10.90;99.90
51021;DHT22;38907;45.562;8.856;2023-02-01T16:12:32;10.80;99.90
51021;DHT22;38907;45.562;8.856;2023-02-01T16:17:35;10.70;99.90
51021;DHT22;38907;45.562;8.856;2023-02-01T16:22:38;10.50;99.90
51021;DHT22;38907;45.562;8.856;2023-02-01T16:27:40;10.30;99.90
51021;DHT22;38907;45.562;8.856;2023-02-01T16:32:42;10.20;99.90
51021;DHT22;38907;45.562;8.856;2023-02-01T16:37:45;10.00;99.90
51021;DHT22;38907;45.562;8.856;2023-02-01T16:42:50;9.90;99.90
51021;DHT22;38907;45.562;8.856;2023-02-01T16:47:54;9.80;99.90
51021;DHT22;38907;45.562;8.856;2023-02-01T16:52:58;9.70;99.90
51021;DHT22;38907;45.562;8.856;2023-02-01T16:57:59;9.60;99.90
51021;DHT22;38907;45.562;8.856;2023-02-01T17:03:01;9.50;99.90
51021;DHT22;38907;45.562;8.856;2023-02-01T17:08:06;9.40;99.90
51021;DHT22;38907;45.562;8.856;2023-02-01T17:13:12;9.30;99.90
51021;DHT22;38907;45.562;8.856;2023-02-01T17:18:15;9.20;99.90
51021;DHT22;38907;45.562;8.856;2023-02-01T17:23:19;9.10;99.90
51021;DHT22;38907;45.562;8.856;2023-02-01T17:28:21;9.00;99.90
51021;DHT22;38907;45.562;8.856;2023-02-01T17:33:25;8.90;99.90
51021;DHT22;38907;45.562;8.856;2023-02-01T17:38:28;8.80;99.90
51021;DHT22;38907;45.562;8.856;2023-02-01T17:43:30;8.80;99.90
51021;DHT22;38907;45.562;8.856;2023-02-01T17:48:32;8.80;99.90
51021;DHT22;38907;45.562;8.856;2023-02-01T17:53:35;8.90;99.90
51021;DHT22;38907;45.562;8.856;2023-02-01T17:58:37;8.90;99.90
51021;DHT22;38907;45.562;8.856;2023-02-01T18:03:40;8.70;99.90
51021;DHT22;38907;45.562;8.856;2023-02-01T18:08:44;8.20;99.90
51021;DHT22;38907;45.562;8.856;2023-02-01T18:13:47;8.10;99.90
51021;DHT22;38907;45.562;8.856;2023-02-01T18:18:49;8.20;99.90
51021;DHT22;38907;45.562;8.856;2023-02-01T18:23:52;8.10;99.90
51021;DHT22;38907;45.562;8.856;2023-02-01T18:28:54;8.10;99.90
51021;DHT22;38907;45.562;8.856;2023-02-01T18:33:57;8.20;99.90
51021;DHT22;38907;45.562;8.856;2023-02-01T18:39:01;8.30;99.90
51021;DHT22;38907;45.562;8.856;2023-02-01T18:44:03;8.30;99.90
51021;DHT22;38907;45.562;8.856;2023-02-01T18:49:05;8.30;99.90
51021;DHT22;38907;45.562;8.856;2023-02-01T18:54:09;8.30;99.90
51021;DHT22;38907;45.562;8.856;2023-02-01T18:59:12;8.30;99.90
51021;DHT22;38907;45.562;8.856;2023-02-01T19:04:14;8.20;99.90
51021;DHT22;38907;45.562;8.856;2023-02-01T19:09:17;8.10;99.90
51021;DHT22;38907;45.562;8.856;2023-02-01T19:14:19;8.10;99.90
51021;DHT22;38907;45.562;8.856;2023-02-01T19:19:21;8.00;99.90
51021;DHT22;38907;45.562;8.856;2023-02-01T19:24:24;7.90;99.90
51021;DHT22;38907;45.562;8.856;2023-02-01T19:29:27;7.80;99.90
51021;DHT22;38907;45.562;8.856;2023-02-01T19:34:29;7.80;99.90
51021;DHT22;38907;45.562;8.856;2023-02-01T19:39:33;7.70;99.90
51021;DHT22;38907;45.562;8.856;2023-02-01T19:44:37;7.50;99.90
51021;DHT22;38907;45.562;8.856;2023-02-01T19:49:38;7.50;99.90
51021;DHT22;38907;45.562;8.856;2023-02-01T19:54:42;7.30;99.90
51021;DHT22;38907;45.562;8.856;2023-02-01T19:59:43;7.20;99.90
51021;DHT22;38907;45.562;8.856;2023-02-01T20:04:45;7.10;99.90
51021;DHT22;38907;45.562;8.856;2023-02-01T20:09:48;7.20;99.90
51021;DHT22;38907;45.562;8.856;2023-02-01T20:14:50;7.10;99.90
51021;DHT22;38907;45.562;8.856;2023-02-01T20:19:52;6.90;99.90
51021;DHT22;38907;45.562;8.856;2023-02-01T20:24:55;7.00;99.90
51021;DHT22;38907;45.562;8.856;2023-02-01T20:29:59;7.00;99.90
51021;DHT22;38907;45.562;8.856;2023-02-01T20:35:01;6.90;99.90
51021;DHT22;38907;45.562;8.856;2023-02-01T20:40:05;6.80;99.90
51021;DHT22;38907;45.562;8.856;2023-02-01T20:45:07;6.90;99.90
51021;DHT22;38907;45.562;8.856;2023-02-01T20:50:10;7.10;99.90
51021;DHT22;38907;45.562;8.856;2023-02-01T20:55:13;7.10;99.90
51021;DHT22;38907;45.562;8.856;2023-02-01T21:00:16;6.70;99.90
51021;DHT22;38907;45.562;8.856;2023-02-01T21:05:18;6.50;99.90
51021;DHT22;38907;45.562;8.856;2023-02-01T21:10:21;6.50;99.90
51021;DHT22;38907;45.562;8.856;2023-02-01T21:15:23;6.50;99.90
51021;DHT22;38907;45.562;8.856;2023-02-01T21:20:26;6.50;99.90
51021;DHT22;38907;45.562;8.856;2023-02-01T21:25:29;6.50;99.90
51021;DHT22;38907;45.562;8.856;2023-02-01T21:30:31;6.40;99.90
51021;DHT22;38907;45.562;8.856;2023-02-01T21:35:33;6.50;99.90
51021;DHT22;38907;45.562;8.856;2023-02-01T21:40:37;6.50;99.90
51021;DHT22;38907;45.562;8.856;2023-02-01T21:45:39;6.30;99.90
51021;DHT22;38907;45.562;8.856;2023-02-01T21:50:41;5.80;99.90
51021;DHT22;38907;45.562;8.856;2023-02-01T21:55:44;5.80;99.90
51021;DHT22;38907;45.562;8.856;2023-02-01T22:00:46;5.80;99.90
51021;DHT22;38907;45.562;8.856;2023-02-01T22:05:48;5.90;99.90
51021;DHT22;38907;45.562;8.856;2023-02-01T22:10:52;5.90;99.90
51021;DHT22;38907;45.562;8.856;2023-02-01T22:15:55;5.90;99.90
51021;DHT22;38907;45.562;8.856;2023-02-01T22:20:58;6.20;99.90
51021;DHT22;38907;45.562;8.856;2023-02-01T22:26:03;6.40;99.90
51021;DHT22;38907;45.562;8.856;2023-02-01T22:31:08;6.50;99.90
51021;DHT22;38907;45.562;8.856;2023-02-01T22:36:10;6.60;99.90
51021;DHT22;38907;45.562;8.856;2023-02-01T22:41:16;6.60;99.90
51021;DHT22;38907;45.562;8.856;2023-02-01T22:46:20;6.70;99.90
51021;DHT22;38907;45.562;8.856;2023-02-01T22:51:26;6.70;99.90
51021;DHT22;38907;45.562;8.856;2023-02-01T22:56:32;6.60;99.90
51021;DHT22;38907;45.562;8.856;2023-02-01T23:01:34;6.70;99.90
51021;DHT22;38907;45.562;8.856;2023-02-01T23:06:37;6.60;99.90
51021;DHT22;38907;45.562;8.856;2023-02-01T23:11:41;6.60;99.90
51021;DHT22;38907;45.562;8.856;2023-02-01T23:16:44;6.50;99.90
51021;DHT22;38907;45.562;8.856;2023-02-01T23:21:46;6.40;99.90
51021;DHT22;38907;45.562;8.856;2023-02-01T23:26:50;6.30;99.90
51021;DHT22;38907;45.562;8.856;2023-02-01T23:31:52;6.30;99.90
51021;DHT22;38907;45.562;8.856;2023-02-01T23:36:53;6.20;99.90
51021;DHT22;38907;45.562;8.856;2023-02-01T23:41:58;6.20;99.90
51021;DHT22;38907;45.562;8.856;2023-02-01T23:47:01;6.20;99.90
51021;DHT22;38907;45.562;8.856;2023-02-01T23:52:03;6.00;99.90
51021;DHT22;38907;45.562;8.856;2023-02-01T23:57:06;5.90;99.90
